createdAt,value
2023-03-22T00:01:14.577Z,100550.56
2023-03-22T00:03:43.021Z,100554.16
2023-03-22T00:06:10.684Z,100545.28
2023-03-22T00:08:38.712Z,100551.88
2023-03-22T00:11:06.896Z,100542.22
2023-03-22T00:13:37.373Z,100547.44
2023-03-22T00:16:05.754Z,100542.16
2023-03-22T00:18:32.957Z,100547.53
2023-03-22T00:21:00.667Z,100544.00
2023-03-22T00:23:29.167Z,100541.41
2023-03-22T00:25:56.660Z,100544.91
2023-03-22T00:28:24.523Z,100544.13
2023-03-22T00:30:55.535Z,100535.53
2023-03-22T00:33:23.591Z,100532.91
2023-03-22T00:35:52.645Z,100528.63
2023-03-22T00:38:21.899Z,100535.63
2023-03-22T00:40:50.740Z,100534.69
2023-03-22T00:43:17.907Z,100532.00
2023-03-22T00:45:44.921Z,100511.66
2023-03-22T00:48:12.486Z,100510.78
2023-03-22T00:50:41.313Z,100504.66
2023-03-22T00:53:08.340Z,100499.50
2023-03-22T00:55:35.596Z,100499.53
2023-03-22T00:58:03.004Z,100502.00
2023-03-22T01:00:31.691Z,100499.41
2023-03-22T01:02:59.880Z,100495.06
2023-03-22T01:05:28.415Z,100497.38
2023-03-22T01:07:55.721Z,100492.81
2023-03-22T01:10:23.099Z,100499.13
2023-03-22T01:12:50.187Z,100495.56
2023-03-22T01:15:17.396Z,100500.19
2023-03-22T01:17:44.618Z,100499.47
2023-03-22T01:20:12.217Z,100494.84
2023-03-22T01:22:39.233Z,100498.19
2023-03-22T01:25:06.748Z,100486.25
2023-03-22T01:27:33.741Z,100480.59
2023-03-22T01:30:00.741Z,100492.84
2023-03-22T01:32:27.862Z,100491.88
2023-03-22T01:34:55.055Z,100497.88
2023-03-22T01:37:22.362Z,100496.31
2023-03-22T01:39:49.975Z,100495.31
2023-03-22T01:42:18.436Z,100499.59
2023-03-22T01:45:11.604Z,100505.94
2023-03-22T01:47:40.133Z,100508.81
2023-03-22T01:50:08.863Z,100507.22
2023-03-22T01:52:37.687Z,100510.59
2023-03-22T01:55:13.259Z,100511.50
2023-03-22T01:57:45.217Z,100509.78
2023-03-22T02:00:20.777Z,100515.09
2023-03-22T02:03:25.950Z,100508.28
2023-03-22T02:05:54.203Z,100509.94
2023-03-22T02:08:24.199Z,100519.53
2023-03-22T02:11:05.691Z,100509.00
2023-03-22T02:14:12.719Z,100512.44
2023-03-22T02:17:14.499Z,100514.03
2023-03-22T02:20:30.110Z,100516.78
2023-03-22T02:23:36.260Z,100524.81
2023-03-22T02:26:31.611Z,100521.13
2023-03-22T02:29:15.907Z,100527.50
2023-03-22T02:32:20.098Z,100532.19
2023-03-22T02:34:57.419Z,100533.84
2023-03-22T02:38:01.742Z,100534.66
2023-03-22T02:40:54.945Z,100530.16
2023-03-22T02:43:46.333Z,100533.38
2023-03-22T02:46:30.847Z,100526.44
2023-03-22T02:49:22.537Z,100524.78
2023-03-22T02:51:59.390Z,100523.81
2023-03-22T02:54:33.694Z,100523.81
2023-03-22T02:57:17.025Z,100531.63
2023-03-22T02:59:46.088Z,100535.09
2023-03-22T03:02:19.757Z,100539.69
2023-03-22T03:04:50.010Z,100537.97
2023-03-22T03:07:22.371Z,100539.00
2023-03-22T03:09:51.230Z,100545.19
2023-03-22T03:12:21.348Z,100534.78
2023-03-22T03:14:48.582Z,100541.00
2023-03-22T03:18:00.098Z,100542.81
2023-03-22T03:20:42.747Z,100548.09
2023-03-22T03:23:28.946Z,100548.94
2023-03-22T03:26:29.265Z,100548.06
2023-03-22T03:29:07.044Z,100544.50
2023-03-22T03:31:57.268Z,100539.09
2023-03-22T03:34:49.585Z,100535.44
2023-03-22T03:37:20.999Z,100534.59
2023-03-22T03:40:18.233Z,100538.31
2023-03-22T03:42:51.808Z,100537.47
2023-03-22T03:45:22.305Z,100544.50
2023-03-22T03:47:57.190Z,100545.38
2023-03-22T03:50:26.238Z,100539.22
2023-03-22T03:52:55.580Z,100549.75
2023-03-22T03:55:24.820Z,100546.28
2023-03-22T03:57:52.104Z,100545.38
2023-03-22T04:00:19.961Z,100553.31
2023-03-22T04:03:07.260Z,100557.69
2023-03-22T04:05:54.468Z,100556.78
2023-03-22T04:08:22.284Z,100564.59
2023-03-22T04:10:51.897Z,100561.97
2023-03-22T04:13:24.803Z,100557.56
2023-03-22T04:15:57.643Z,100565.56
2023-03-22T04:18:25.409Z,100563.72
2023-03-22T04:20:53.693Z,100568.94
2023-03-22T04:23:23.296Z,100571.59
2023-03-22T04:25:51.275Z,100565.38
2023-03-22T04:28:29.833Z,100568.81
2023-03-22T04:30:57.931Z,100569.59
2023-03-22T04:33:49.905Z,100573.06
2023-03-22T04:36:36.639Z,100573.16
2023-03-22T04:39:13.819Z,100571.19
2023-03-22T04:41:45.521Z,100577.16
2023-03-22T04:44:12.659Z,100571.06
2023-03-22T04:46:44.602Z,100575.41
2023-03-22T04:49:11.797Z,100575.56
2023-03-22T04:51:42.248Z,100574.59
2023-03-22T04:54:19.508Z,100577.31
2023-03-22T04:56:46.457Z,100574.50
2023-03-22T04:59:17.918Z,100574.50
2023-03-22T05:01:50.130Z,100579.69
2023-03-22T05:04:21.337Z,100578.91
2023-03-22T05:06:52.704Z,100582.47
2023-03-22T05:09:30.149Z,100585.97
2023-03-22T05:11:58.023Z,100589.56
2023-03-22T05:14:29.032Z,100591.28
2023-03-22T05:16:56.352Z,100585.91
2023-03-22T05:19:24.539Z,100588.72
2023-03-22T05:21:58.328Z,100587.84
2023-03-22T05:24:37.970Z,100590.47
2023-03-22T05:27:05.920Z,100585.84
2023-03-22T05:29:37.114Z,100584.22
2023-03-22T05:32:12.925Z,100593.00
2023-03-22T05:34:42.832Z,100588.44
2023-03-22T05:37:22.642Z,100598.91
2023-03-22T05:39:56.897Z,100595.16
2023-03-22T05:42:35.168Z,100604.88
2023-03-22T05:45:06.638Z,100596.81
2023-03-22T05:47:34.382Z,100599.78
2023-03-22T05:50:13.464Z,100596.34
2023-03-22T05:52:40.858Z,100596.34
2023-03-22T05:55:34.101Z,100598.25
2023-03-22T05:58:05.262Z,100599.69
2023-03-22T06:00:35.882Z,100599.84
2023-03-22T06:03:39.745Z,100596.34
2023-03-22T06:06:15.916Z,100598.47
2023-03-22T06:09:15.911Z,100597.47
2023-03-22T06:11:44.507Z,100600.69
2023-03-22T06:14:12.507Z,100608.94
2023-03-22T06:17:09.527Z,100610.75
2023-03-22T06:19:37.029Z,100604.69
2023-03-22T06:22:06.471Z,100609.00
2023-03-22T06:24:36.106Z,100604.31
2023-03-22T06:27:04.665Z,100615.78
2023-03-22T06:29:33.479Z,100612.31
2023-03-22T06:32:03.929Z,100617.50
2023-03-22T06:34:31.889Z,100621.72
2023-03-22T06:36:59.213Z,100620.97
2023-03-22T06:39:35.382Z,100624.91
2023-03-22T06:42:03.069Z,100632.06
2023-03-22T06:44:30.386Z,100628.31
2023-03-22T06:47:15.851Z,100635.53
2023-03-22T06:50:01.034Z,100634.63
2023-03-22T06:52:45.474Z,100643.28
2023-03-22T06:55:12.923Z,100642.13
2023-03-22T06:57:39.928Z,100653.63
2023-03-22T07:00:10.190Z,100640.34
2023-03-22T07:02:37.511Z,100645.47
2023-03-22T07:05:22.646Z,100645.13
2023-03-22T07:07:49.856Z,100652.84
2023-03-22T07:10:19.396Z,100652.09
2023-03-22T07:12:53.130Z,100656.41
2023-03-22T07:15:24.444Z,100663.50
2023-03-22T07:18:01.612Z,100661.75
2023-03-22T07:20:29.619Z,100662.53
2023-03-22T07:22:57.427Z,100666.91
2023-03-22T07:25:27.568Z,100670.50
2023-03-22T07:28:04.317Z,100674.91
2023-03-22T07:30:32.330Z,100670.56
2023-03-22T07:32:59.435Z,100672.31
2023-03-22T07:35:27.074Z,100677.63
2023-03-22T07:37:55.394Z,100678.50
2023-03-22T07:40:28.429Z,100683.75
2023-03-22T07:42:56.701Z,100675.88
2023-03-22T07:45:35.859Z,100684.63
2023-03-22T07:48:23.113Z,100686.31
2023-03-22T07:51:10.421Z,100683.63
2023-03-22T07:53:38.024Z,100685.97
2023-03-22T07:56:05.583Z,100680.53
2023-03-22T07:58:32.766Z,100685.50
2023-03-22T08:01:04.585Z,100694.06
2023-03-22T08:03:51.804Z,100683.28
2023-03-22T08:06:37.244Z,100694.22
2023-03-22T08:09:05.623Z,100691.72
2023-03-22T08:11:32.918Z,100697.97
2023-03-22T08:14:00.392Z,100694.44
2023-03-22T08:16:27.851Z,100698.50
2023-03-22T08:18:55.982Z,100707.22
2023-03-22T08:21:26.210Z,100704.31
2023-03-22T08:23:55.470Z,100699.97
2023-03-22T08:26:34.337Z,100688.63
2023-03-22T08:29:11.681Z,100700.75
2023-03-22T08:31:38.962Z,100697.31
2023-03-22T08:34:06.367Z,100703.41
2023-03-22T08:36:33.527Z,100705.13
2023-03-22T08:39:04.692Z,100709.88
2023-03-22T08:41:57.732Z,100719.25
2023-03-22T08:44:27.121Z,100721.41
2023-03-22T08:46:55.368Z,100724.91
2023-03-22T08:49:22.702Z,100724.03
2023-03-22T08:52:00.599Z,100733.69
2023-03-22T08:54:47.630Z,100728.44
2023-03-22T08:57:33.150Z,100731.91
2023-03-22T09:00:17.536Z,100736.28
2023-03-22T09:02:52.394Z,100735.38
2023-03-22T09:05:20.246Z,100738.06
2023-03-22T09:07:51.748Z,100742.31
2023-03-22T09:10:29.059Z,100743.22
2023-03-22T09:12:56.478Z,100752.66
2023-03-22T09:15:23.876Z,100752.63
2023-03-22T09:18:06.146Z,100756.09
2023-03-22T09:20:34.531Z,100751.75
2023-03-22T09:23:01.823Z,100760.56
2023-03-22T09:25:28.912Z,100764.03
2023-03-22T09:27:57.693Z,100772.69
2023-03-22T09:30:25.453Z,100773.56
2023-03-22T09:32:52.578Z,100766.50
2023-03-22T09:35:20.541Z,100773.50
2023-03-22T09:38:03.747Z,100775.09
2023-03-22T09:40:33.241Z,100778.53
2023-03-22T09:43:06.237Z,100768.13
2023-03-22T09:45:42.117Z,100775.00
2023-03-22T09:48:37.248Z,100776.75
2023-03-22T09:51:07.922Z,100774.13
2023-03-22T09:53:34.978Z,100776.75
2023-03-22T09:56:27.837Z,100774.22
2023-03-22T09:59:17.791Z,100775.97
2023-03-22T10:02:00.498Z,100783.69
2023-03-22T10:04:44.202Z,100783.75
2023-03-22T10:07:23.203Z,100780.38
2023-03-22T10:09:59.147Z,100786.41
2023-03-22T10:12:31.056Z,100786.25
2023-03-22T10:15:10.871Z,100777.63
2023-03-22T10:17:41.355Z,100782.09
2023-03-22T10:20:32.400Z,100779.44
2023-03-22T10:23:03.090Z,100781.34
2023-03-22T10:25:39.882Z,100779.56
2023-03-22T10:28:21.312Z,100783.88
2023-03-22T10:30:54.697Z,100781.16
2023-03-22T10:33:29.277Z,100784.81
2023-03-22T10:35:57.101Z,100778.66
2023-03-22T10:38:27.392Z,100789.91
2023-03-22T10:40:58.439Z,100779.53
2023-03-22T10:43:58.951Z,100784.78
2023-03-22T10:46:32.292Z,100781.31
2023-03-22T10:49:01.170Z,100783.94
2023-03-22T10:51:49.455Z,100783.91
2023-03-22T10:54:21.645Z,100782.28
2023-03-22T10:56:48.742Z,100782.28
2023-03-22T10:59:55.978Z,100777.06
2023-03-22T11:02:32.604Z,100777.88
2023-03-22T11:05:04.057Z,100777.06
2023-03-22T11:07:35.739Z,100764.91
2023-03-22T11:10:08.680Z,100763.34
2023-03-22T11:12:40.016Z,100756.47
2023-03-22T11:15:20.338Z,100759.97
2023-03-22T11:17:48.356Z,100764.31
2023-03-22T11:20:19.928Z,100766.09
2023-03-22T11:22:49.608Z,100764.31
2023-03-22T11:25:29.341Z,100766.97
2023-03-22T11:28:09.602Z,100764.34
2023-03-22T11:30:37.437Z,100756.34
2023-03-22T11:33:04.419Z,100756.44
2023-03-22T11:35:31.783Z,100759.06
2023-03-22T11:37:59.622Z,100763.41
2023-03-22T11:40:35.030Z,100754.69
2023-03-22T11:43:10.702Z,100747.66
2023-03-22T11:45:43.057Z,100752.03
2023-03-22T11:48:16.298Z,100744.19
2023-03-22T11:50:44.958Z,100754.72
2023-03-22T11:53:24.758Z,100738.91
2023-03-22T11:55:55.318Z,100739.81
2023-03-22T11:58:28.225Z,100739.81
2023-03-22T12:00:59.967Z,100740.66
2023-03-22T12:03:37.619Z,100739.75
2023-03-22T12:06:23.602Z,100736.28
2023-03-22T12:08:58.638Z,100732.75
2023-03-22T12:11:35.236Z,100727.50
2023-03-22T12:14:11.223Z,100726.63
2023-03-22T12:16:49.312Z,100729.31
2023-03-22T12:19:36.908Z,100726.69
2023-03-22T12:22:11.142Z,100724.03
2023-03-22T12:24:38.178Z,100731.94
2023-03-22T12:27:16.688Z,100723.16
2023-03-22T12:29:52.309Z,100729.28
2023-03-22T12:32:24.962Z,100725.81
2023-03-22T12:35:01.303Z,100721.44
2023-03-22T12:37:40.257Z,100728.44
2023-03-22T12:40:39.657Z,100717.91
2023-03-22T12:43:32.040Z,100716.16
2023-03-22T12:46:02.216Z,100710.88
2023-03-22T12:48:33.837Z,100717.91
2023-03-22T12:51:05.971Z,100716.13
2023-03-22T12:53:42.739Z,100727.56
2023-03-22T12:56:16.861Z,100724.03
2023-03-22T12:58:49.092Z,100722.28
2023-03-22T13:01:37.354Z,100721.44
2023-03-22T13:04:26.016Z,100725.78
2023-03-22T13:06:53.651Z,100721.41
2023-03-22T13:09:29.956Z,100723.16
2023-03-22T13:12:15.882Z,100716.16
2023-03-22T13:15:31.643Z,100717.03
2023-03-22T13:18:31.158Z,100709.16
2023-03-22T13:21:14.123Z,100712.66
2023-03-22T13:24:01.021Z,100711.78
2023-03-22T13:26:53.060Z,100709.13
2023-03-22T13:29:36.468Z,100703.00
2023-03-22T13:32:06.341Z,100703.91
2023-03-22T13:34:39.731Z,100709.16
2023-03-22T13:37:46.114Z,100703.88
2023-03-22T13:40:22.289Z,100703.91
2023-03-22T13:42:51.542Z,100700.41
2023-03-22T13:45:57.524Z,100696.03
2023-03-22T13:48:49.436Z,100696.88
2023-03-22T13:51:25.625Z,100696.91
2023-03-22T13:53:55.542Z,100696.00
2023-03-22T13:56:44.551Z,100700.38
2023-03-22T13:59:20.458Z,100697.78
2023-03-22T14:02:07.693Z,100693.41
2023-03-22T14:05:09.329Z,100696.88
2023-03-22T14:07:46.660Z,100696.00
2023-03-22T14:10:18.461Z,100691.63
2023-03-22T14:12:48.430Z,100698.63
2023-03-22T14:15:19.171Z,100694.22
2023-03-22T14:18:08.365Z,100696.84
2023-03-22T14:20:39.602Z,100689.69
